createdAt,value
2023-03-01T05:02:37.096Z,8.93
2023-03-01T05:05:03.678Z,10.15
2023-03-01T05:07:30.236Z,10.88
2023-03-01T05:09:57.363Z,11.02
2023-03-01T05:12:23.948Z,10.53
2023-03-01T05:14:52.348Z,11.75
2023-03-01T05:17:18.987Z,11.23
2023-03-01T05:19:47.213Z,10.90
2023-03-01T05:22:13.781Z,10.25
2023-03-01T05:24:40.380Z,10.30
2023-03-01T05:27:11.054Z,10.43
2023-03-01T05:29:40.575Z,11.55
2023-03-01T05:32:07.292Z,11.27
2023-03-01T05:34:36.881Z,11.15
2023-03-01T05:37:04.008Z,10.70
2023-03-01T05:39:30.651Z,10.32
2023-03-01T05:41:59.611Z,10.55
2023-03-01T05:44:27.111Z,10.57
2023-03-01T05:46:53.750Z,10.00
2023-03-01T05:49:20.428Z,10.27
2023-03-01T05:51:51.891Z,10.13
2023-03-01T05:54:19.562Z,10.35
2023-03-01T05:56:46.333Z,10.75
2023-03-01T05:59:12.970Z,11.02
2023-03-01T06:01:39.533Z,11.00
2023-03-01T06:04:06.612Z,10.27
2023-03-01T06:06:40.607Z,10.85
2023-03-01T06:09:08.426Z,10.75
2023-03-01T06:11:36.036Z,11.35
2023-03-01T06:14:03.007Z,11.60
2023-03-01T06:16:29.993Z,11.48
2023-03-01T06:18:56.672Z,11.57
2023-03-01T06:21:23.305Z,11.32
2023-03-01T06:23:49.887Z,11.50
2023-03-01T06:26:17.437Z,12.50
2023-03-01T06:28:47.106Z,11.05
2023-03-01T06:31:13.846Z,11.23
2023-03-01T06:33:40.760Z,10.38
2023-03-01T06:36:08.334Z,11.65
2023-03-01T06:38:35.145Z,11.80
2023-03-01T06:41:02.257Z,10.65
2023-03-01T06:43:28.898Z,10.98
2023-03-01T18:21:32.739Z,6.60
2023-03-01T18:23:59.752Z,8.00
2023-03-01T18:26:27.822Z,11.27
2023-03-01T18:28:58.342Z,9.30
2023-03-01T18:31:25.779Z,7.70
2023-03-01T18:33:57.127Z,6.25
2023-03-01T18:36:26.722Z,6.93
2023-03-01T18:38:55.410Z,6.77
2023-03-01T18:41:23.479Z,6.25
2023-03-01T18:43:50.562Z,6.10
2023-03-01T18:46:17.119Z,6.00
2023-03-01T18:48:44.855Z,6.53
2023-03-01T18:51:14.194Z,7.40
2023-03-01T18:53:41.165Z,6.55
2023-03-01T18:56:08.934Z,6.97
2023-03-01T18:58:35.867Z,6.38
2023-03-01T19:01:04.575Z,6.95
2023-03-01T19:03:31.477Z,6.90
2023-03-01T19:06:00.960Z,6.57
2023-03-01T19:08:30.818Z,6.65
2023-03-01T19:10:58.927Z,6.15
2023-03-01T19:13:26.154Z,6.60
2023-03-01T19:15:53.436Z,7.77
2023-03-01T19:18:19.977Z,8.15
2023-03-01T19:20:46.842Z,8.60
2023-03-01T19:23:15.889Z,9.60
2023-03-01T19:25:42.432Z,11.07
2023-03-01T19:28:09.034Z,11.20
2023-03-01T19:30:35.605Z,8.85
2023-03-01T19:33:02.153Z,8.00
2023-03-01T19:35:28.870Z,7.68
2023-03-01T19:37:55.401Z,6.82
2023-03-01T19:40:21.997Z,7.17
2023-03-01T19:42:48.621Z,6.30
2023-03-01T19:45:17.961Z,6.93
2023-03-01T19:47:48.330Z,8.15
2023-03-01T19:50:14.959Z,8.73
2023-03-01T19:52:41.540Z,9.47
2023-03-01T19:55:09.987Z,11.40
2023-03-01T19:57:36.926Z,10.43
2023-03-01T20:00:03.850Z,9.05
2023-03-01T20:02:30.449Z,7.75
2023-03-01T20:04:57.191Z,6.67
2023-03-01T20:07:23.754Z,7.38
2023-03-01T20:09:50.273Z,6.90
2023-03-01T20:12:19.274Z,7.22
2023-03-01T20:14:46.142Z,7.75
2023-03-01T20:17:12.664Z,7.47
2023-03-01T20:19:39.294Z,7.45
2023-03-01T20:22:05.876Z,6.63
2023-03-01T20:24:32.528Z,6.72
2023-03-01T20:27:01.014Z,7.68
2023-03-01T20:29:27.536Z,6.77
2023-03-01T20:31:54.344Z,6.80
2023-03-01T20:34:21.057Z,6.97
2023-03-01T20:36:47.655Z,7.20
2023-03-01T20:39:14.220Z,6.90
2023-03-01T20:41:40.817Z,7.03
2023-03-01T20:44:09.996Z,6.85
2023-03-01T20:46:37.329Z,7.13
2023-03-01T20:49:04.742Z,6.47
2023-03-01T20:51:31.465Z,6.47
2023-03-01T20:53:58.259Z,6.00
2023-03-01T20:56:27.520Z,6.45
2023-03-01T20:58:57.584Z,5.90
2023-03-01T21:01:24.885Z,6.50
2023-03-01T21:03:51.850Z,6.22
2023-03-01T21:06:18.589Z,6.00
2023-03-01T21:08:45.144Z,6.50
2023-03-01T21:11:12.531Z,6.90
2023-03-01T21:13:39.348Z,6.28
2023-03-01T21:16:10.236Z,6.70
2023-03-01T21:18:37.199Z,6.23
2023-03-01T21:21:05.527Z,6.70
2023-03-01T21:23:34.556Z,7.10
2023-03-01T21:26:08.792Z,6.88
2023-03-01T21:28:36.513Z,7.53
2023-03-01T21:31:15.188Z,7.30
2023-03-01T21:33:46.726Z,7.63
2023-03-01T21:36:14.005Z,7.45
2023-03-01T21:38:42.552Z,7.78
2023-03-01T21:41:11.678Z,8.43
2023-03-01T21:43:39.808Z,7.87
2023-03-01T21:46:10.466Z,9.10
2023-03-01T21:48:37.592Z,9.10
2023-03-01T21:51:05.698Z,10.23
2023-03-01T21:53:34.063Z,10.30
2023-03-01T21:56:01.677Z,10.53
2023-03-01T21:58:29.224Z,10.55
2023-03-01T22:00:56.430Z,10.18
2023-03-01T22:03:23.457Z,10.00
2023-03-01T22:05:57.947Z,10.25
2023-03-01T22:08:25.168Z,9.77
2023-03-01T22:10:52.141Z,9.15
2023-03-01T22:13:19.331Z,9.68
2023-03-01T22:15:46.294Z,8.85
2023-03-01T22:18:13.378Z,9.73
2023-03-01T22:20:41.056Z,9.13
2023-03-01T22:23:08.027Z,9.32
2023-03-01T22:25:41.736Z,9.00
2023-03-01T22:28:08.416Z,7.95
2023-03-01T22:30:35.894Z,7.68
2023-03-01T22:33:02.543Z,7.37
2023-03-01T22:35:29.621Z,8.07
2023-03-01T22:37:56.287Z,8.00
2023-03-01T22:40:23.489Z,7.35
2023-03-01T22:42:50.020Z,8.10
2023-03-01T22:45:16.545Z,7.60
2023-03-01T22:47:43.134Z,7.03
2023-03-01T22:50:14.140Z,6.88
2023-03-01T22:52:40.953Z,7.75
2023-03-01T22:55:08.632Z,7.50
2023-03-01T22:57:35.190Z,7.43
